createdAt,value
2018-06-14T00:00:57.000Z,34
2018-06-14T00:01:57.000Z,34
2018-06-14T00:02:57.000Z,33
2018-06-14T00:03:57.000Z,33
2018-06-14T00:04:57.000Z,34
2018-06-14T00:06:57.000Z,33
2018-06-14T00:07:57.000Z,33
2018-06-14T00:08:57.000Z,33
2018-06-14T00:09:57.000Z,33
2018-06-14T00:10:57.000Z,33
2018-06-14T00:11:57.000Z,33
2018-06-14T00:12:57.000Z,33
2018-06-14T00:13:57.000Z,33
2018-06-14T00:14:57.000Z,33
2018-06-14T00:15:57.000Z,33
2018-06-14T00:16:57.000Z,33
2018-06-14T00:17:57.000Z,33
2018-06-14T00:18:57.000Z,33
2018-06-14T00:19:57.000Z,33
2018-06-14T00:20:57.000Z,33
2018-06-14T00:21:57.000Z,33
2018-06-14T00:22:57.000Z,33
2018-06-14T00:23:57.000Z,33
2018-06-14T00:25:57.000Z,33
2018-06-14T00:27:57.000Z,33
2018-06-14T00:28:57.000Z,33
2018-06-14T00:29:57.000Z,33
2018-06-14T00:30:57.000Z,33
2018-06-14T00:31:57.000Z,33
2018-06-14T00:32:57.000Z,33
2018-06-14T00:33:57.000Z,34
2018-06-14T00:34:57.000Z,33
2018-06-14T00:35:57.000Z,33
2018-06-14T00:36:57.000Z,33
2018-06-14T00:37:57.000Z,33
2018-06-14T00:38:57.000Z,33
2018-06-14T00:39:57.000Z,33
2018-06-14T00:40:57.000Z,33
2018-06-14T00:41:57.000Z,33
2018-06-14T00:42:57.000Z,33
2018-06-14T00:43:57.000Z,33
2018-06-14T00:44:57.000Z,33
2018-06-14T00:45:57.000Z,33
2018-06-14T00:46:57.000Z,33
2018-06-14T00:48:57.000Z,33
2018-06-14T00:49:57.000Z,33
2018-06-14T00:50:57.000Z,34
2018-06-14T00:51:57.000Z,34
2018-06-14T00:53:57.000Z,33
2018-06-14T00:54:57.000Z,33
2018-06-14T00:55:57.000Z,33
2018-06-14T00:56:57.000Z,34
2018-06-14T00:58:56.000Z,33
2018-06-14T00:59:56.000Z,33
2018-06-14T01:00:56.000Z,33
2018-06-14T01:01:56.000Z,33
2018-06-14T01:02:56.000Z,33
2018-06-14T01:03:56.000Z,33
2018-06-14T01:04:56.000Z,33
2018-06-14T01:05:56.000Z,33
2018-06-14T01:07:56.000Z,33
2018-06-14T01:08:56.000Z,33
2018-06-14T01:09:56.000Z,33
2018-06-14T01:10:56.000Z,33
2018-06-14T01:11:56.000Z,33
2018-06-14T01:12:56.000Z,34
2018-06-14T01:13:56.000Z,33
2018-06-14T01:14:56.000Z,34
2018-06-14T01:15:56.000Z,34
2018-06-14T01:16:56.000Z,34
2018-06-14T01:17:56.000Z,33
2018-06-14T01:18:56.000Z,34
2018-06-14T01:19:56.000Z,33
2018-06-14T01:20:56.000Z,33
2018-06-14T01:21:56.000Z,33
2018-06-14T01:22:56.000Z,33
2018-06-14T01:23:56.000Z,33
2018-06-14T01:24:56.000Z,33
2018-06-14T01:26:56.000Z,33
2018-06-14T01:27:56.000Z,33
2018-06-14T01:28:56.000Z,34
2018-06-14T01:30:56.000Z,33
2018-06-14T01:31:56.000Z,34
2018-06-14T01:32:56.000Z,33
2018-06-14T01:33:56.000Z,34
2018-06-14T01:34:56.000Z,34
2018-06-14T01:35:56.000Z,33
2018-06-14T01:36:56.000Z,34
2018-06-14T01:37:56.000Z,33
2018-06-14T01:38:56.000Z,34
2018-06-14T01:39:56.000Z,34
2018-06-14T01:40:56.000Z,34
2018-06-14T01:41:56.000Z,34
2018-06-14T01:42:56.000Z,33
2018-06-14T01:43:56.000Z,33
2018-06-14T01:44:56.000Z,33
2018-06-14T01:45:56.000Z,33
2018-06-14T01:46:56.000Z,34
2018-06-14T01:47:56.000Z,34
2018-06-14T01:49:56.000Z,33
2018-06-14T01:50:56.000Z,33
2018-06-14T01:51:56.000Z,34
2018-06-14T01:52:56.000Z,33
2018-06-14T01:53:56.000Z,33
2018-06-14T01:54:56.000Z,33
2018-06-14T01:55:56.000Z,33
2018-06-14T01:56:56.000Z,33
2018-06-14T01:57:56.000Z,33
2018-06-14T01:58:56.000Z,33
2018-06-14T01:59:56.000Z,33
2018-06-14T02:00:56.000Z,33
2018-06-14T02:01:56.000Z,33
2018-06-14T02:02:56.000Z,33
2018-06-14T02:03:56.000Z,33
2018-06-14T02:05:56.000Z,33
2018-06-14T02:06:56.000Z,33
2018-06-14T02:07:56.000Z,33
2018-06-14T02:08:56.000Z,33
2018-06-14T02:09:56.000Z,33
2018-06-14T02:10:56.000Z,33
2018-06-14T02:12:56.000Z,33
2018-06-14T02:13:56.000Z,33
2018-06-14T02:14:56.000Z,33
2018-06-14T02:15:56.000Z,33
2018-06-14T02:16:56.000Z,33
2018-06-14T02:17:56.000Z,33
2018-06-14T02:18:56.000Z,34
2018-06-14T02:19:56.000Z,33
2018-06-14T02:20:56.000Z,33
2018-06-14T02:21:56.000Z,34
2018-06-14T02:23:56.000Z,33
2018-06-14T02:24:56.000Z,33
2018-06-14T02:25:56.000Z,33
2018-06-14T02:26:56.000Z,33
2018-06-14T02:28:56.000Z,33
2018-06-14T02:29:56.000Z,34
2018-06-14T02:30:56.000Z,34
2018-06-14T02:31:56.000Z,34
2018-06-14T02:33:56.000Z,33
2018-06-14T02:34:56.000Z,34
2018-06-14T02:35:56.000Z,34
2018-06-14T02:37:56.000Z,33
2018-06-14T02:38:56.000Z,33
2018-06-14T02:39:56.000Z,33
2018-06-14T02:40:56.000Z,33
2018-06-14T02:41:56.000Z,33
2018-06-14T02:42:56.000Z,33
2018-06-14T02:43:56.000Z,34
2018-06-14T02:45:56.000Z,33
2018-06-14T02:47:56.000Z,33
2018-06-14T02:48:56.000Z,33
2018-06-14T02:49:56.000Z,33
2018-06-14T02:50:56.000Z,34
2018-06-14T02:51:56.000Z,33
2018-06-14T02:52:56.000Z,34
2018-06-14T02:53:56.000Z,34
2018-06-14T02:54:56.000Z,34
2018-06-14T02:55:56.000Z,34
2018-06-14T02:56:56.000Z,34
2018-06-14T02:57:56.000Z,33
2018-06-14T02:59:56.000Z,33
2018-06-14T03:00:56.000Z,34
2018-06-14T03:01:56.000Z,34
2018-06-14T03:02:56.000Z,34
2018-06-14T03:03:56.000Z,34
2018-06-14T03:04:56.000Z,34
2018-06-14T03:05:56.000Z,34
2018-06-14T03:06:56.000Z,33
2018-06-14T03:07:56.000Z,34
2018-06-14T03:08:56.000Z,33
2018-06-14T03:09:56.000Z,34
2018-06-14T03:11:56.000Z,33
2018-06-14T03:12:56.000Z,34
2018-06-14T03:13:56.000Z,33
2018-06-14T03:14:56.000Z,34
2018-06-14T03:15:56.000Z,34
2018-06-14T03:16:56.000Z,34
2018-06-14T03:17:56.000Z,34
2018-06-14T03:18:56.000Z,34
2018-06-14T03:19:56.000Z,34
2018-06-14T03:20:56.000Z,34
2018-06-14T03:21:56.000Z,33
2018-06-14T03:22:56.000Z,34
2018-06-14T03:23:56.000Z,34
2018-06-14T03:24:56.000Z,34
2018-06-14T03:25:56.000Z,33
2018-06-14T03:26:56.000Z,34
2018-06-14T03:27:56.000Z,34
2018-06-14T03:28:56.000Z,33
2018-06-14T03:29:56.000Z,33
2018-06-14T03:30:56.000Z,33
2018-06-14T03:31:56.000Z,33
2018-06-14T03:32:56.000Z,33
2018-06-14T03:33:56.000Z,33
2018-06-14T03:34:56.000Z,33
2018-06-14T03:35:56.000Z,33
2018-06-14T03:36:56.000Z,33
2018-06-14T03:38:56.000Z,33
2018-06-14T03:39:56.000Z,33
2018-06-14T03:40:56.000Z,33
2018-06-14T03:41:56.000Z,33
2018-06-14T03:42:56.000Z,34
2018-06-14T03:44:56.000Z,33
2018-06-14T03:45:56.000Z,34
2018-06-14T03:46:56.000Z,34
2018-06-14T03:47:56.000Z,34
2018-06-14T03:48:56.000Z,34
2018-06-14T03:49:56.000Z,34
2018-06-14T03:50:56.000Z,35
2018-06-14T03:51:56.000Z,35
2018-06-14T03:52:56.000Z,35
2018-06-14T03:53:56.000Z,35
2018-06-14T03:54:56.000Z,36
2018-06-14T03:55:56.000Z,36
2018-06-14T03:56:56.000Z,36
2018-06-14T03:57:56.000Z,36
2018-06-14T03:59:56.000Z,36
2018-06-14T04:00:56.000Z,37
2018-06-14T04:01:56.000Z,37
2018-06-14T04:02:56.000Z,37
2018-06-14T04:03:56.000Z,37
2018-06-14T04:04:56.000Z,37
2018-06-14T04:05:56.000Z,37
2018-06-14T04:06:56.000Z,37
2018-06-14T04:07:56.000Z,37
2018-06-14T04:08:56.000Z,37
2018-06-14T04:09:56.000Z,37
2018-06-14T04:10:56.000Z,37
2018-06-14T04:11:56.000Z,37
2018-06-14T04:12:56.000Z,37
2018-06-14T04:13:56.000Z,37
2018-06-14T04:15:56.000Z,37
2018-06-14T04:16:56.000Z,37
2018-06-14T04:17:56.000Z,37
2018-06-14T04:18:56.000Z,37
2018-06-14T04:20:56.000Z,37
2018-06-14T04:21:56.000Z,37
2018-06-14T04:22:56.000Z,37
2018-06-14T04:23:56.000Z,37
2018-06-14T04:24:56.000Z,37
2018-06-14T04:25:56.000Z,37
2018-06-14T04:27:56.000Z,37
2018-06-14T04:28:56.000Z,36
2018-06-14T04:29:56.000Z,36
2018-06-14T04:30:56.000Z,36
2018-06-14T04:32:56.000Z,36
2018-06-14T04:33:56.000Z,36
2018-06-14T04:34:56.000Z,37
2018-06-14T04:35:56.000Z,37
2018-06-14T04:36:56.000Z,37
2018-06-14T04:37:56.000Z,37
2018-06-14T04:39:56.000Z,37
2018-06-14T04:40:56.000Z,37
2018-06-14T04:41:56.000Z,37
2018-06-14T04:42:56.000Z,37
2018-06-14T04:43:56.000Z,37
2018-06-14T04:45:56.000Z,36
2018-06-14T04:46:56.000Z,37
2018-06-14T04:47:56.000Z,37
2018-06-14T04:48:56.000Z,37
2018-06-14T04:49:56.000Z,37
2018-06-14T04:50:56.000Z,37
2018-06-14T04:51:56.000Z,37
2018-06-14T04:52:56.000Z,37
2018-06-14T04:53:56.000Z,37
2018-06-14T04:54:56.000Z,37
2018-06-14T04:55:56.000Z,37
2018-06-14T04:56:56.000Z,37
2018-06-14T04:57:56.000Z,37
2018-06-14T04:58:56.000Z,37
2018-06-14T04:59:56.000Z,37
2018-06-14T05:00:56.000Z,37
2018-06-14T05:02:56.000Z,37
2018-06-14T05:03:56.000Z,37
2018-06-14T05:04:56.000Z,37
2018-06-14T05:05:56.000Z,37
2018-06-14T05:06:56.000Z,37
2018-06-14T05:08:56.000Z,37
2018-06-14T05:09:56.000Z,37
2018-06-14T05:10:56.000Z,37
2018-06-14T05:11:56.000Z,37
2018-06-14T05:12:56.000Z,37
2018-06-14T05:13:56.000Z,37
2018-06-14T05:14:56.000Z,37
2018-06-14T05:16:56.000Z,37
2018-06-14T05:17:56.000Z,37
2018-06-14T05:18:56.000Z,37
2018-06-14T05:19:56.000Z,37
2018-06-14T05:20:56.000Z,37
2018-06-14T05:21:56.000Z,37
2018-06-14T05:22:56.000Z,37
2018-06-14T05:23:56.000Z,37
2018-06-14T05:24:56.000Z,37
2018-06-14T05:25:56.000Z,37
2018-06-14T05:26:56.000Z,37
2018-06-14T05:27:56.000Z,37
2018-06-14T05:28:56.000Z,37
2018-06-14T05:29:56.000Z,37
2018-06-14T05:30:56.000Z,37
2018-06-14T05:31:56.000Z,37
2018-06-14T05:33:56.000Z,36
2018-06-14T05:34:56.000Z,37
2018-06-14T05:35:56.000Z,37
2018-06-14T05:36:56.000Z,36
2018-06-14T05:37:56.000Z,37
2018-06-14T05:38:56.000Z,36
2018-06-14T05:39:56.000Z,36
2018-06-14T05:40:56.000Z,36
2018-06-14T05:41:56.000Z,36
2018-06-14T05:42:56.000Z,36
2018-06-14T05:43:56.000Z,36
2018-06-14T05:45:56.000Z,36
2018-06-14T05:46:56.000Z,36
2018-06-14T05:47:56.000Z,36
2018-06-14T05:48:56.000Z,36
2018-06-14T05:49:56.000Z,36
2018-06-14T05:50:56.000Z,36
2018-06-14T05:52:56.000Z,36
2018-06-14T05:53:56.000Z,36
2018-06-14T05:54:56.000Z,37
2018-06-14T05:55:56.000Z,36
2018-06-14T05:56:56.000Z,36
2018-06-14T05:57:56.000Z,36
2018-06-14T05:59:56.000Z,36
2018-06-14T06:00:56.000Z,36
2018-06-14T06:01:56.000Z,36
2018-06-14T06:02:56.000Z,37
2018-06-14T06:04:56.000Z,36
2018-06-14T06:05:56.000Z,37
2018-06-14T06:06:56.000Z,36
2018-06-14T06:07:56.000Z,37
2018-06-14T06:08:56.000Z,36
2018-06-14T06:09:56.000Z,36
2018-06-14T06:10:56.000Z,36
2018-06-14T06:11:56.000Z,36
2018-06-14T06:12:56.000Z,36
2018-06-14T06:13:56.000Z,36
2018-06-14T06:14:56.000Z,36
2018-06-14T06:15:56.000Z,36
2018-06-14T06:16:56.000Z,36
2018-06-14T06:18:56.000Z,36
2018-06-14T06:19:56.000Z,36
2018-06-14T06:21:56.000Z,36
2018-06-14T06:22:56.000Z,36
2018-06-14T06:23:56.000Z,36
2018-06-14T06:24:56.000Z,35
2018-06-14T06:25:56.000Z,36
2018-06-14T06:26:56.000Z,35
2018-06-14T06:27:56.000Z,35
2018-06-14T06:28:56.000Z,35
2018-06-14T06:29:56.000Z,35
2018-06-14T06:30:56.000Z,35
2018-06-14T06:31:56.000Z,35
2018-06-14T06:32:56.000Z,35
2018-06-14T06:33:56.000Z,35
2018-06-14T06:34:56.000Z,35
2018-06-14T06:35:56.000Z,35
2018-06-14T06:36:56.000Z,35
2018-06-14T06:37:56.000Z,35
2018-06-14T06:38:56.000Z,35
2018-06-14T06:40:56.000Z,35
2018-06-14T06:41:56.000Z,35
2018-06-14T06:42:56.000Z,35
2018-06-14T06:43:56.000Z,35
2018-06-14T06:44:56.000Z,35
2018-06-14T06:45:56.000Z,35
2018-06-14T06:46:56.000Z,35
2018-06-14T06:47:56.000Z,35
2018-06-14T06:48:56.000Z,35
2018-06-14T06:49:56.000Z,35
2018-06-14T06:50:56.000Z,35
2018-06-14T06:51:56.000Z,35
2018-06-14T06:52:56.000Z,35
2018-06-14T06:53:56.000Z,35
2018-06-14T06:55:56.000Z,35
2018-06-14T06:56:56.000Z,35
2018-06-14T06:57:56.000Z,35
2018-06-14T06:58:56.000Z,35
2018-06-14T06:59:56.000Z,35
2018-06-14T07:00:56.000Z,35
2018-06-14T07:01:56.000Z,35
2018-06-14T07:02:56.000Z,35
2018-06-14T07:03:56.000Z,35
2018-06-14T07:04:56.000Z,35
2018-06-14T07:06:56.000Z,34
2018-06-14T07:07:56.000Z,35
2018-06-14T07:08:56.000Z,34
2018-06-14T07:09:56.000Z,34
2018-06-14T07:10:56.000Z,35
2018-06-14T07:11:56.000Z,34
2018-06-14T07:12:56.000Z,34
2018-06-14T07:13:56.000Z,34
2018-06-14T07:14:56.000Z,34
2018-06-14T07:15:56.000Z,34
2018-06-14T07:16:56.000Z,34
2018-06-14T07:17:56.000Z,34
2018-06-14T07:19:56.000Z,34
2018-06-14T07:20:56.000Z,34
2018-06-14T07:21:56.000Z,34
2018-06-14T07:22:56.000Z,34
2018-06-14T07:23:56.000Z,34
2018-06-14T07:24:56.000Z,34
2018-06-14T07:25:56.000Z,34
2018-06-14T07:26:56.000Z,34
2018-06-14T07:27:56.000Z,34
2018-06-14T07:28:56.000Z,34
2018-06-14T07:29:56.000Z,34
2018-06-14T07:30:56.000Z,34
2018-06-14T07:32:56.000Z,33
2018-06-14T07:33:56.000Z,33
2018-06-14T07:34:56.000Z,33
2018-06-14T07:35:56.000Z,33
2018-06-14T07:36:56.000Z,33
2018-06-14T07:37:56.000Z,33
2018-06-14T07:39:56.000Z,33
2018-06-14T07:41:56.000Z,33
2018-06-14T07:42:56.000Z,33
2018-06-14T07:43:56.000Z,33
2018-06-14T07:44:56.000Z,33
2018-06-14T07:45:56.000Z,33
2018-06-14T07:46:56.000Z,33
2018-06-14T07:47:56.000Z,33
2018-06-14T07:48:56.000Z,33
2018-06-14T07:49:56.000Z,32
2018-06-14T07:50:56.000Z,32
2018-06-14T07:51:56.000Z,32
2018-06-14T07:52:56.000Z,32
2018-06-14T07:53:56.000Z,32
2018-06-14T07:54:56.000Z,32
2018-06-14T07:55:56.000Z,32
2018-06-14T07:56:56.000Z,32
2018-06-14T07:57:56.000Z,32
2018-06-14T07:59:56.000Z,32
2018-06-14T08:00:56.000Z,32
2018-06-14T08:01:56.000Z,32
2018-06-14T08:02:56.000Z,32
2018-06-14T08:03:56.000Z,32
2018-06-14T08:04:56.000Z,32
2018-06-14T08:06:56.000Z,32
2018-06-14T08:07:56.000Z,32
2018-06-14T08:08:56.000Z,32
2018-06-14T08:09:56.000Z,32
2018-06-14T08:10:56.000Z,32
2018-06-14T08:12:56.000Z,32
2018-06-14T08:13:56.000Z,32
2018-06-14T08:14:56.000Z,32
2018-06-14T08:16:56.000Z,31
2018-06-14T08:17:56.000Z,31
2018-06-14T08:18:56.000Z,31
2018-06-14T08:19:56.000Z,31
2018-06-14T08:20:56.000Z,31
2018-06-14T08:21:56.000Z,31
2018-06-14T08:22:56.000Z,31
2018-06-14T08:23:56.000Z,31
2018-06-14T08:24:56.000Z,31
2018-06-14T08:25:56.000Z,31
2018-06-14T08:26:56.000Z,31
2018-06-14T08:27:56.000Z,30
2018-06-14T08:28:56.000Z,31
2018-06-14T08:29:56.000Z,30
2018-06-14T08:30:56.000Z,31
2018-06-14T08:31:56.000Z,31
2018-06-14T08:32:56.000Z,30
2018-06-14T08:33:56.000Z,31
2018-06-14T08:34:56.000Z,30
2018-06-14T08:35:56.000Z,30
2018-06-14T08:36:56.000Z,30
2018-06-14T08:37:56.000Z,30
2018-06-14T08:38:56.000Z,30
2018-06-14T08:39:56.000Z,30
2018-06-14T08:41:56.000Z,30
2018-06-14T08:42:56.000Z,29
2018-06-14T08:43:56.000Z,29
2018-06-14T08:45:56.000Z,29
2018-06-14T08:46:56.000Z,29
2018-06-14T08:48:56.000Z,29
2018-06-14T08:49:56.000Z,30
2018-06-14T08:50:56.000Z,30
2018-06-14T08:51:56.000Z,30
2018-06-14T08:52:56.000Z,30
2018-06-14T08:53:56.000Z,30
2018-06-14T08:54:56.000Z,30
2018-06-14T08:55:56.000Z,30
2018-06-14T08:56:56.000Z,30
2018-06-14T08:57:56.000Z,30
2018-06-14T08:58:56.000Z,30
2018-06-14T08:59:56.000Z,30
2018-06-14T09:00:56.000Z,30
2018-06-14T09:01:56.000Z,30
2018-06-14T09:02:56.000Z,30
2018-06-14T09:03:56.000Z,30
2018-06-14T09:04:56.000Z,30
2018-06-14T09:05:56.000Z,30
2018-06-14T09:06:56.000Z,30
2018-06-14T09:08:56.000Z,30
2018-06-14T09:09:56.000Z,30
2018-06-14T09:10:56.000Z,30
2018-06-14T09:11:56.000Z,30
2018-06-14T09:13:56.000Z,30
2018-06-14T09:14:56.000Z,30
2018-06-14T09:15:56.000Z,30
2018-06-14T09:16:56.000Z,30
2018-06-14T09:17:56.000Z,30
2018-06-14T09:19:56.000Z,30
2018-06-14T09:20:56.000Z,30
2018-06-14T09:21:56.000Z,30
2018-06-14T09:22:56.000Z,30
2018-06-14T09:23:56.000Z,30
2018-06-14T09:24:56.000Z,30
2018-06-14T09:25:56.000Z,30
2018-06-14T09:26:56.000Z,30
2018-06-14T09:27:56.000Z,30
2018-06-14T09:28:56.000Z,30
2018-06-14T09:29:56.000Z,30
2018-06-14T09:30:56.000Z,30
2018-06-14T09:31:56.000Z,30
2018-06-14T09:32:56.000Z,30
2018-06-14T09:33:56.000Z,30
2018-06-14T09:34:56.000Z,30
2018-06-14T09:35:56.000Z,30
2018-06-14T09:36:56.000Z,30
2018-06-14T09:37:56.000Z,30
2018-06-14T09:38:56.000Z,30
2018-06-14T09:39:56.000Z,30
2018-06-14T09:40:56.000Z,30
2018-06-14T09:41:56.000Z,30
2018-06-14T09:43:56.000Z,30
2018-06-14T09:44:56.000Z,30
2018-06-14T09:45:56.000Z,30
2018-06-14T09:46:56.000Z,30
2018-06-14T09:47:56.000Z,30
2018-06-14T09:48:56.000Z,30
2018-06-14T09:49:56.000Z,30
2018-06-14T09:50:56.000Z,30
2018-06-14T09:51:56.000Z,30
2018-06-14T09:52:56.000Z,30
2018-06-14T09:53:56.000Z,30
2018-06-14T09:54:56.000Z,30
2018-06-14T09:56:56.000Z,30
2018-06-14T09:57:56.000Z,30
2018-06-14T09:58:56.000Z,30
2018-06-14T09:59:56.000Z,30
2018-06-14T10:00:56.000Z,30
2018-06-14T10:01:56.000Z,30
2018-06-14T10:03:56.000Z,30
2018-06-14T10:07:42.000Z,30
2018-06-14T10:08:42.000Z,31
2018-06-14T10:09:42.000Z,31
2018-06-14T10:10:42.000Z,31
2018-06-14T10:11:42.000Z,31
2018-06-14T10:12:42.000Z,31
2018-06-14T10:13:42.000Z,31
2018-06-14T10:14:42.000Z,31
2018-06-14T10:16:42.000Z,31
2018-06-14T10:17:42.000Z,31
2018-06-14T10:18:42.000Z,31
2018-06-14T10:19:42.000Z,31
2018-06-14T10:21:42.000Z,30
2018-06-14T10:22:42.000Z,31
2018-06-14T10:23:42.000Z,31
2018-06-14T10:24:42.000Z,31
2018-06-14T10:25:42.000Z,31
2018-06-14T10:26:42.000Z,31
2018-06-14T10:27:42.000Z,31
2018-06-14T10:28:42.000Z,31
2018-06-14T10:35:28.000Z,31
2018-06-14T10:36:28.000Z,31
2018-06-14T10:37:28.000Z,31
2018-06-14T10:38:28.000Z,31
2018-06-14T10:39:28.000Z,31
2018-06-14T10:40:28.000Z,31
2018-06-14T10:41:28.000Z,31
2018-06-14T10:42:28.000Z,31
2018-06-14T10:43:28.000Z,31
2018-06-14T10:44:28.000Z,31
2018-06-14T10:45:28.000Z,31
2018-06-14T10:46:28.000Z,31
2018-06-14T10:48:28.000Z,31
2018-06-14T10:50:28.000Z,31
2018-06-14T10:51:28.000Z,31
2018-06-14T10:52:28.000Z,31
2018-06-14T10:53:28.000Z,31
2018-06-14T10:55:28.000Z,30
2018-06-14T10:56:28.000Z,31
2018-06-14T10:57:28.000Z,31
2018-06-14T10:59:28.000Z,30
2018-06-14T11:00:28.000Z,31
2018-06-14T11:01:28.000Z,31
2018-06-14T11:02:28.000Z,31
2018-06-14T11:03:28.000Z,31
2018-06-14T11:04:28.000Z,31
2018-06-14T11:05:28.000Z,31
2018-06-14T11:06:28.000Z,31
2018-06-14T11:07:28.000Z,31
2018-06-14T11:08:28.000Z,31
2018-06-14T11:09:28.000Z,31
2018-06-14T11:10:28.000Z,31
2018-06-14T11:11:28.000Z,30
2018-06-14T11:12:28.000Z,30
2018-06-14T11:13:28.000Z,30
2018-06-14T11:14:28.000Z,30
2018-06-14T11:15:28.000Z,30
2018-06-14T11:17:28.000Z,30
2018-06-14T11:18:28.000Z,30
2018-06-14T11:19:28.000Z,30
2018-06-14T11:20:28.000Z,30
2018-06-14T11:21:28.000Z,30
2018-06-14T11:22:28.000Z,30
2018-06-14T11:23:28.000Z,30
2018-06-14T11:24:28.000Z,30
2018-06-14T11:25:28.000Z,30
2018-06-14T11:26:28.000Z,30
2018-06-14T11:27:28.000Z,30
2018-06-14T11:28:28.000Z,30
2018-06-14T11:29:28.000Z,30
2018-06-14T11:30:28.000Z,30
2018-06-14T11:32:28.000Z,30
2018-06-14T11:33:28.000Z,30
2018-06-14T11:34:28.000Z,30
2018-06-14T11:36:29.000Z,30
2018-06-14T11:37:29.000Z,30
2018-06-14T11:38:29.000Z,30
2018-06-14T11:39:29.000Z,30
2018-06-14T11:40:29.000Z,31
2018-06-14T11:41:29.000Z,30
2018-06-14T11:42:29.000Z,30
2018-06-14T11:43:29.000Z,30
2018-06-14T11:45:29.000Z,30
2018-06-14T11:46:29.000Z,30
2018-06-14T11:47:29.000Z,30
2018-06-14T11:48:29.000Z,30
2018-06-14T11:49:29.000Z,30
2018-06-14T11:50:29.000Z,30
2018-06-14T11:52:29.000Z,30
2018-06-14T11:53:29.000Z,30
2018-06-14T11:55:29.000Z,30
2018-06-14T11:56:29.000Z,30
2018-06-14T11:57:29.000Z,30
2018-06-14T11:58:29.000Z,31
2018-06-14T12:00:29.000Z,30
2018-06-14T12:01:29.000Z,31
2018-06-14T12:02:29.000Z,31
2018-06-14T12:03:29.000Z,31
2018-06-14T12:05:29.000Z,31
2018-06-14T12:06:29.000Z,31
2018-06-14T12:07:29.000Z,31
2018-06-14T12:08:29.000Z,31
2018-06-14T12:09:29.000Z,31
2018-06-14T12:10:29.000Z,31
2018-06-14T12:11:29.000Z,31
2018-06-14T12:12:29.000Z,31
2018-06-14T12:13:29.000Z,31
2018-06-14T12:14:29.000Z,31
2018-06-14T12:15:29.000Z,31
2018-06-14T12:16:29.000Z,31
2018-06-14T12:17:29.000Z,31
2018-06-14T12:19:29.000Z,31
2018-06-14T12:20:29.000Z,31
2018-06-14T12:21:29.000Z,31
2018-06-14T12:22:29.000Z,31
2018-06-14T12:23:29.000Z,31
2018-06-14T12:24:29.000Z,31
2018-06-14T12:25:29.000Z,31
2018-06-14T12:26:29.000Z,31
2018-06-14T12:27:29.000Z,31
2018-06-14T12:29:29.000Z,31
2018-06-14T12:30:29.000Z,31
2018-06-14T12:32:29.000Z,31
2018-06-14T12:33:29.000Z,31
2018-06-14T12:34:29.000Z,31
2018-06-14T12:36:29.000Z,31
2018-06-14T12:37:29.000Z,31
2018-06-14T12:39:29.000Z,31
2018-06-14T12:40:29.000Z,31
2018-06-14T12:41:29.000Z,31
2018-06-14T12:42:29.000Z,31
2018-06-14T12:43:29.000Z,31
2018-06-14T12:45:29.000Z,30
2018-06-14T12:46:29.000Z,31
2018-06-14T12:47:29.000Z,31
2018-06-14T12:48:29.000Z,31
2018-06-14T12:49:29.000Z,31
2018-06-14T12:51:29.000Z,31
2018-06-14T12:52:29.000Z,31
2018-06-14T12:53:29.000Z,31
2018-06-14T12:54:29.000Z,31
2018-06-14T12:55:29.000Z,31
2018-06-14T12:56:29.000Z,31
2018-06-14T12:57:29.000Z,31
2018-06-14T12:58:29.000Z,31
2018-06-14T12:59:29.000Z,31
2018-06-14T13:00:29.000Z,31
2018-06-14T13:01:29.000Z,31
2018-06-14T13:03:29.000Z,31
2018-06-14T13:04:29.000Z,31
2018-06-14T13:05:29.000Z,31
2018-06-14T13:06:29.000Z,31
2018-06-14T13:07:29.000Z,31
2018-06-14T13:08:29.000Z,31
2018-06-14T13:09:29.000Z,31
2018-06-14T13:10:29.000Z,31
2018-06-14T13:11:29.000Z,31
2018-06-14T13:12:29.000Z,31
2018-06-14T13:13:29.000Z,31
2018-06-14T13:14:29.000Z,31
2018-06-14T13:15:29.000Z,31
2018-06-14T13:16:29.000Z,31
2018-06-14T13:17:29.000Z,31
2018-06-14T13:18:29.000Z,31
2018-06-14T13:19:29.000Z,31
2018-06-14T13:20:29.000Z,31
2018-06-14T13:22:29.000Z,30
2018-06-14T13:24:29.000Z,30
2018-06-14T13:25:29.000Z,31
2018-06-14T13:26:29.000Z,31
2018-06-14T13:27:29.000Z,31
2018-06-14T13:28:29.000Z,31
2018-06-14T13:29:29.000Z,31
2018-06-14T13:30:29.000Z,31
2018-06-14T13:31:29.000Z,31
2018-06-14T13:32:29.000Z,31
2018-06-14T13:33:29.000Z,31
2018-06-14T13:34:29.000Z,31
2018-06-14T13:35:29.000Z,31
2018-06-14T13:36:29.000Z,31
2018-06-14T13:37:29.000Z,31
2018-06-14T13:38:29.000Z,31
2018-06-14T13:40:29.000Z,31
2018-06-14T13:41:29.000Z,31
2018-06-14T13:42:29.000Z,31
2018-06-14T13:43:29.000Z,31
2018-06-14T13:44:29.000Z,31
2018-06-14T13:45:29.000Z,31
2018-06-14T13:46:29.000Z,31
2018-06-14T13:47:29.000Z,31
2018-06-14T13:49:29.000Z,31
2018-06-14T13:50:29.000Z,31
2018-06-14T13:51:29.000Z,31
2018-06-14T13:52:29.000Z,31
2018-06-14T13:53:29.000Z,31
2018-06-14T13:54:29.000Z,31
2018-06-14T13:55:29.000Z,31
2018-06-14T13:56:29.000Z,31
2018-06-14T13:57:29.000Z,31
2018-06-14T13:58:29.000Z,31
2018-06-14T13:59:29.000Z,31
2018-06-14T14:00:29.000Z,31
2018-06-14T14:01:29.000Z,31
2018-06-14T14:02:29.000Z,31
2018-06-14T14:03:29.000Z,31
2018-06-14T14:04:29.000Z,31
2018-06-14T14:05:29.000Z,32
2018-06-14T14:06:29.000Z,31
2018-06-14T14:07:29.000Z,32
2018-06-14T14:08:29.000Z,31
2018-06-14T14:09:29.000Z,32
2018-06-14T14:10:29.000Z,32
2018-06-14T14:11:29.000Z,32
2018-06-14T14:13:29.000Z,32
2018-06-14T14:14:29.000Z,32
2018-06-14T14:15:29.000Z,32
2018-06-14T14:16:29.000Z,32
2018-06-14T14:18:29.000Z,32
2018-06-14T14:19:29.000Z,32
2018-06-14T14:20:29.000Z,32
2018-06-14T14:21:29.000Z,32
2018-06-14T14:22:29.000Z,32
2018-06-14T14:23:29.000Z,32
2018-06-14T14:24:29.000Z,32
2018-06-14T14:25:29.000Z,32
2018-06-14T14:26:29.000Z,32
2018-06-14T14:28:29.000Z,32
2018-06-14T14:29:29.000Z,32
2018-06-14T14:30:29.000Z,32
2018-06-14T14:31:29.000Z,32
2018-06-14T14:32:29.000Z,32
2018-06-14T14:33:29.000Z,32
2018-06-14T14:34:29.000Z,32
2018-06-14T14:36:29.000Z,31
2018-06-14T14:37:29.000Z,31
2018-06-14T14:38:29.000Z,31
2018-06-14T14:39:29.000Z,31
2018-06-14T14:40:29.000Z,31
2018-06-14T14:41:29.000Z,31
2018-06-14T14:42:29.000Z,31
2018-06-14T14:43:29.000Z,31
2018-06-14T14:44:29.000Z,31
2018-06-14T14:45:29.000Z,31
2018-06-14T14:46:28.000Z,31
2018-06-14T14:47:28.000Z,31
2018-06-14T14:48:28.000Z,31
2018-06-14T14:49:28.000Z,31
2018-06-14T14:50:28.000Z,31
2018-06-14T14:52:28.000Z,31
2018-06-14T14:53:28.000Z,31
2018-06-14T14:54:28.000Z,31
2018-06-14T14:55:28.000Z,31
2018-06-14T14:56:28.000Z,31
2018-06-14T14:57:28.000Z,31
2018-06-14T14:58:28.000Z,31
2018-06-14T14:59:28.000Z,31
2018-06-14T15:00:28.000Z,31
2018-06-14T15:01:28.000Z,31
2018-06-14T15:03:28.000Z,31
2018-06-14T15:04:28.000Z,31
2018-06-14T15:05:28.000Z,31
2018-06-14T15:06:28.000Z,31
2018-06-14T15:07:28.000Z,31
2018-06-14T15:08:28.000Z,31
2018-06-14T15:09:28.000Z,31
2018-06-14T15:10:28.000Z,31
2018-06-14T15:11:28.000Z,31
2018-06-14T15:12:28.000Z,31
2018-06-14T15:13:28.000Z,31
2018-06-14T15:14:28.000Z,31
2018-06-14T15:15:28.000Z,31
2018-06-14T15:16:28.000Z,31
2018-06-14T15:17:28.000Z,31
2018-06-14T15:18:28.000Z,31
2018-06-14T15:19:28.000Z,31
2018-06-14T15:20:28.000Z,31
2018-06-14T15:21:28.000Z,31
2018-06-14T15:22:28.000Z,31
2018-06-14T15:23:28.000Z,31
2018-06-14T15:24:28.000Z,31
2018-06-14T15:25:28.000Z,31
2018-06-14T15:26:28.000Z,31
2018-06-14T15:27:28.000Z,31
2018-06-14T15:28:28.000Z,31
2018-06-14T15:29:28.000Z,31
2018-06-14T15:30:28.000Z,31
2018-06-14T15:31:28.000Z,31
2018-06-14T15:32:28.000Z,31
2018-06-14T15:34:28.000Z,30
2018-06-14T15:35:28.000Z,31
2018-06-14T15:36:28.000Z,31
2018-06-14T15:38:28.000Z,30
2018-06-14T15:39:28.000Z,31
2018-06-14T15:40:28.000Z,31
2018-06-14T15:41:28.000Z,31
2018-06-14T15:43:28.000Z,31
2018-06-14T15:44:28.000Z,31
2018-06-14T15:45:28.000Z,31
2018-06-14T15:46:28.000Z,31
2018-06-14T15:47:28.000Z,31
2018-06-14T15:48:28.000Z,31
2018-06-14T15:49:28.000Z,31
2018-06-14T15:50:29.000Z,31
2018-06-14T15:51:29.000Z,31
2018-06-14T15:52:29.000Z,31
2018-06-14T15:54:29.000Z,31
2018-06-14T15:55:29.000Z,31
2018-06-14T15:56:29.000Z,31
2018-06-14T15:57:29.000Z,31
2018-06-14T15:58:29.000Z,31
2018-06-14T15:59:29.000Z,31